sensor_id;sensor_type;location;lat;lon;timestamp;pressure;altitude;pressure_sealevel;temperature;humidity
38191;BME280;25191;47.510;19.124;2022-09-13T00:00:28;100227.47;;;23.66;42.58
38191;BME280;25191;47.510;19.124;2022-09-13T00:10:29;100220.78;;;23.62;42.92
38191;BME280;25191;47.510;19.124;2022-09-13T00:20:30;100229.72;;;23.61;42.82
38191;BME280;25191;47.510;19.124;2022-09-13T00:30:30;100219.81;;;23.63;42.97
38191;BME280;25191;47.510;19.124;2022-09-13T00:40:36;100215.50;;;23.62;42.96
38191;BME280;25191;47.510;19.124;2022-09-13T00:50:40;100215.50;;;23.62;43.15
38191;BME280;25191;47.510;19.124;2022-09-13T01:00:43;100226.22;;;23.60;43.04
38191;BME280;25191;47.510;19.124;2022-09-13T01:10:43;100221.91;;;23.59;43.30
38191;BME280;25191;47.510;19.124;2022-09-13T01:21:30;100228.31;;;23.57;43.11
38191;BME280;25191;47.510;19.124;2022-09-13T02:01:56;100213.28;;;23.57;43.16
38191;BME280;25191;47.510;19.124;2022-09-13T02:12:05;100213.41;;;23.56;43.60
38191;BME280;25191;47.510;19.124;2022-09-13T02:22:10;100199.38;;;23.55;43.17
38191;BME280;25191;47.510;19.124;2022-09-13T02:42:24;100203.84;;;23.55;43.25
38191;BME280;25191;47.510;19.124;2022-09-13T03:02:45;100192.56;;;23.53;43.29
38191;BME280;25191;47.510;19.124;2022-09-13T03:13:04;100183.13;;;23.50;43.62
38191;BME280;25191;47.510;19.124;2022-09-13T03:33:40;100170.88;;;23.49;43.44
38191;BME280;25191;47.510;19.124;2022-09-13T03:43:47;100174.47;;;23.48;43.64
38191;BME280;25191;47.510;19.124;2022-09-13T03:53:54;100156.28;;;23.45;43.73
38191;BME280;25191;47.510;19.124;2022-09-13T04:03:57;100157.91;;;23.46;43.55
38191;BME280;25191;47.510;19.124;2022-09-13T04:13:58;100155.28;;;23.46;43.37
38191;BME280;25191;47.510;19.124;2022-09-13T04:23:58;100153.91;;;23.52;43.44
38191;BME280;25191;47.510;19.124;2022-09-13T04:34:00;100158.22;;;23.53;43.87
38191;BME280;25191;47.510;19.124;2022-09-13T04:44:00;100157.81;;;23.47;44.21
38191;BME280;25191;47.510;19.124;2022-09-13T04:54:01;100166.53;;;23.58;44.96
38191;BME280;25191;47.510;19.124;2022-09-13T05:04:02;100170.16;;;23.47;43.37
38191;BME280;25191;47.510;19.124;2022-09-13T05:14:05;100179.34;;;23.33;41.55
38191;BME280;25191;47.510;19.124;2022-09-13T05:24:06;100185.19;;;23.46;43.27
38191;BME280;25191;47.510;19.124;2022-09-13T05:34:09;100190.91;;;23.52;43.40
38191;BME280;25191;47.510;19.124;2022-09-13T05:44:13;100189.06;;;23.52;43.69
38191;BME280;25191;47.510;19.124;2022-09-13T05:54:13;100174.88;;;23.53;43.48
38191;BME280;25191;47.510;19.124;2022-09-13T06:04:14;100186.16;;;23.55;43.31
38191;BME280;25191;47.510;19.124;2022-09-13T06:14:14;100199.38;;;23.55;43.46
38191;BME280;25191;47.510;19.124;2022-09-13T06:24:14;100192.41;;;23.54;43.63
38191;BME280;25191;47.510;19.124;2022-09-13T06:34:15;100200.09;;;23.57;43.53
38191;BME280;25191;47.510;19.124;2022-09-13T06:44:17;100197.16;;;23.60;43.40
38191;BME280;25191;47.510;19.124;2022-09-13T06:54:18;100202.16;;;23.63;43.41
38191;BME280;25191;47.510;19.124;2022-09-13T07:04:19;100194.50;;;23.60;43.09
38191;BME280;25191;47.510;19.124;2022-09-13T07:14:22;100204.66;;;23.65;43.13
38191;BME280;25191;47.510;19.124;2022-09-13T07:24:23;100197.84;;;23.62;43.27
38191;BME280;25191;47.510;19.124;2022-09-13T07:34:25;100197.69;;;23.64;43.51
38191;BME280;25191;47.510;19.124;2022-09-13T07:44:27;100202.56;;;23.69;43.46
38191;BME280;25191;47.510;19.124;2022-09-13T07:54:28;100208.69;;;23.69;43.28
38191;BME280;25191;47.510;19.124;2022-09-13T08:04:29;100203.53;;;23.67;43.35
38191;BME280;25191;47.510;19.124;2022-09-13T08:14:29;100206.75;;;23.71;43.37
38191;BME280;25191;47.510;19.124;2022-09-13T08:24:30;100211.47;;;23.77;43.13
38191;BME280;25191;47.510;19.124;2022-09-13T08:34:30;100196.56;;;23.76;43.01
38191;BME280;25191;47.510;19.124;2022-09-13T08:44:35;100185.59;;;23.81;43.12
38191;BME280;25191;47.510;19.124;2022-09-13T08:54:36;100198.25;;;23.77;43.13
38191;BME280;25191;47.510;19.124;2022-09-13T09:04:45;100195.34;;;23.80;42.94
38191;BME280;25191;47.510;19.124;2022-09-13T09:15:00;100196.16;;;23.81;42.96
38191;BME280;25191;47.510;19.124;2022-09-13T09:25:02;100189.34;;;23.88;43.26
38191;BME280;25191;47.510;19.124;2022-09-13T09:45:32;100167.78;;;23.93;42.92
38191;BME280;25191;47.510;19.124;2022-09-13T10:06:09;100132.69;;;24.01;42.99
38191;BME280;25191;47.510;19.124;2022-09-13T10:16:27;100118.06;;;24.06;42.83
38191;BME280;25191;47.510;19.124;2022-09-13T10:26:32;100100.63;;;24.13;43.00
38191;BME280;25191;47.510;19.124;2022-09-13T10:36:36;100097.41;;;24.20;42.93
38191;BME280;25191;47.510;19.124;2022-09-13T10:46:38;100085.69;;;24.22;38.56
38191;BME280;25191;47.510;19.124;2022-09-13T10:56:40;100084.28;;;24.28;41.37
38191;BME280;25191;47.510;19.124;2022-09-13T11:07:01;100087.16;;;24.35;41.85
38191;BME280;25191;47.510;19.124;2022-09-13T11:58:26;100033.97;;;24.38;36.58
38191;BME280;25191;47.510;19.124;2022-09-13T12:08:31;100026.94;;;24.46;36.35
38191;BME280;25191;47.510;19.124;2022-09-13T12:18:47;100019.28;;;24.43;35.02
38191;BME280;25191;47.510;19.124;2022-09-13T12:28:51;100012.31;;;24.42;34.46
38191;BME280;25191;47.510;19.124;2022-09-13T13:09:41;99985.84;;;24.42;33.41
38191;BME280;25191;47.510;19.124;2022-09-13T13:19:42;99980.88;;;24.39;32.87
38191;BME280;25191;47.510;19.124;2022-09-13T13:29:43;99978.22;;;24.39;35.93
38191;BME280;25191;47.510;19.124;2022-09-13T13:39:48;99960.97;;;24.53;35.39
38191;BME280;25191;47.510;19.124;2022-09-13T13:50:17;99960.38;;;24.59;35.68
38191;BME280;25191;47.510;19.124;2022-09-13T14:00:19;99958.94;;;24.65;35.50
38191;BME280;25191;47.510;19.124;2022-09-13T14:21:02;99943.34;;;24.72;36.26
38191;BME280;25191;47.510;19.124;2022-09-13T14:31:03;99926.50;;;24.81;35.72
38191;BME280;25191;47.510;19.124;2022-09-13T14:41:13;99918.94;;;24.86;35.15
38191;BME280;25191;47.510;19.124;2022-09-13T14:51:23;99905.69;;;24.86;35.99
38191;BME280;25191;47.510;19.124;2022-09-13T15:01:30;99912.47;;;24.89;36.35
38191;BME280;25191;47.510;19.124;2022-09-13T15:11:35;99895.47;;;24.91;35.53
38191;BME280;25191;47.510;19.124;2022-09-13T15:21:36;99881.56;;;24.89;35.43
38191;BME280;25191;47.510;19.124;2022-09-13T15:31:36;99879.19;;;24.86;35.64
38191;BME280;25191;47.510;19.124;2022-09-13T15:41:39;99876.19;;;24.81;36.31
38191;BME280;25191;47.510;19.124;2022-09-13T15:51:41;99870.91;;;24.81;36.93
38191;BME280;25191;47.510;19.124;2022-09-13T16:01:42;99863.56;;;24.75;37.69
38191;BME280;25191;47.510;19.124;2022-09-13T16:11:44;99856.25;;;24.69;38.14
38191;BME280;25191;47.510;19.124;2022-09-13T16:21:47;99849.59;;;24.65;38.51
38191;BME280;25191;47.510;19.124;2022-09-13T16:31:48;99852.38;;;24.63;38.69
38191;BME280;25191;47.510;19.124;2022-09-13T16:41:48;99840.97;;;24.62;38.21
38191;BME280;25191;47.510;19.124;2022-09-13T16:51:48;99843.63;;;24.62;37.91
38191;BME280;25191;47.510;19.124;2022-09-13T17:01:50;99852.84;;;24.58;39.78
38191;BME280;25191;47.510;19.124;2022-09-13T17:11:50;99849.69;;;24.55;39.06
38191;BME280;25191;47.510;19.124;2022-09-13T17:21:52;99848.69;;;24.56;40.39
38191;BME280;25191;47.510;19.124;2022-09-13T17:32:00;99851.31;;;24.56;41.01
38191;BME280;25191;47.510;19.124;2022-09-13T17:42:01;99852.84;;;24.58;40.89
38191;BME280;25191;47.510;19.124;2022-09-13T17:52:02;99851.19;;;24.57;41.95
38191;BME280;25191;47.510;19.124;2022-09-13T18:02:02;99849.38;;;24.58;41.99
38191;BME280;25191;47.510;19.124;2022-09-13T18:12:03;99854.50;;;24.59;42.76
38191;BME280;25191;47.510;19.124;2022-09-13T18:22:05;99867.59;;;24.61;42.75
38191;BME280;25191;47.510;19.124;2022-09-13T18:32:07;99876.34;;;24.61;42.40
38191;BME280;25191;47.510;19.124;2022-09-13T18:42:07;99875.38;;;24.62;42.92
38191;BME280;25191;47.510;19.124;2022-09-13T18:52:08;99885.97;;;24.62;42.76
38191;BME280;25191;47.510;19.124;2022-09-13T19:02:10;99886.25;;;24.59;42.63
38191;BME280;25191;47.510;19.124;2022-09-13T19:12:12;99883.94;;;24.56;42.61
38191;BME280;25191;47.510;19.124;2022-09-13T19:22:13;99884.75;;;24.57;42.65
38191;BME280;25191;47.510;19.124;2022-09-13T19:32:13;99885.91;;;24.54;42.49
38191;BME280;25191;47.510;19.124;2022-09-13T19:42:14;99881.59;;;24.53;42.33
38191;BME280;25191;47.510;19.124;2022-09-13T19:52:14;99871.16;;;24.52;42.23
38191;BME280;25191;47.510;19.124;2022-09-13T20:02:15;99872.13;;;24.51;42.04
38191;BME280;25191;47.510;19.124;2022-09-13T20:12:21;99876.78;;;24.49;42.28
38191;BME280;25191;47.510;19.124;2022-09-13T20:22:22;99872.59;;;24.46;42.69
38191;BME280;25191;47.510;19.124;2022-09-13T20:32:22;99875.41;;;24.44;42.97
38191;BME280;25191;47.510;19.124;2022-09-13T20:42:23;99869.56;;;24.41;43.07
38191;BME280;25191;47.510;19.124;2022-09-13T20:52:24;99862.63;;;24.40;42.92
38191;BME280;25191;47.510;19.124;2022-09-13T21:02:25;99867.25;;;24.38;43.24
38191;BME280;25191;47.510;19.124;2022-09-13T21:12:26;99857.81;;;24.35;43.20
38191;BME280;25191;47.510;19.124;2022-09-13T21:22:26;99853.50;;;24.34;43.52
38191;BME280;25191;47.510;19.124;2022-09-13T21:32:28;99838.75;;;24.32;43.36
38191;BME280;25191;47.510;19.124;2022-09-13T21:42:28;99839.56;;;24.32;43.57
38191;BME280;25191;47.510;19.124;2022-09-13T21:52:30;99843.38;;;24.29;43.69
38191;BME280;25191;47.510;19.124;2022-09-13T22:02:30;99850.63;;;24.27;43.68
38191;BME280;25191;47.510;19.124;2022-09-13T22:12:31;99841.00;;;24.26;43.86
38191;BME280;25191;47.510;19.124;2022-09-13T22:22:32;99829.59;;;24.26;43.58
38191;BME280;25191;47.510;19.124;2022-09-13T22:32:32;99820.00;;;24.25;44.08
38191;BME280;25191;47.510;19.124;2022-09-13T22:42:33;99803.44;;;24.23;43.77
38191;BME280;25191;47.510;19.124;2022-09-13T22:52:34;99801.81;;;24.22;44.26
38191;BME280;25191;47.510;19.124;2022-09-13T23:02:34;99811.72;;;24.20;44.26
38191;BME280;25191;47.510;19.124;2022-09-13T23:12:35;99815.16;;;24.20;44.25
38191;BME280;25191;47.510;19.124;2022-09-13T23:22:36;99823.25;;;24.19;44.30
38191;BME280;25191;47.510;19.124;2022-09-13T23:32:36;99815.50;;;24.17;44.27
38191;BME280;25191;47.510;19.124;2022-09-13T23:42:37;99811.34;;;24.14;44.77
38191;BME280;25191;47.510;19.124;2022-09-13T23:52:37;99798.09;;;24.14;44.41
